Pu Dun — V3ZV9 — position and weather

sailwx.info

Track history (hours):
 
Tides and Currents Weather Stations Pressure Air Temp Water Temp Dewpoint Dewpoint Depression Visibility Wind Speed Wind Dir Waves Ship Positions

Pu Dun

Last reported at 2018-Feb-23 08:34 UTC. Time now 2018-Feb-23 16:24 UTC.
Position N 38°51' E 121°51'.

Length 75 m; draft 5.3 m.

Type: Cargo ship. MMSI: 312615000.

Date/timePositionNaut miles runAvg speedWind from/ knotsBaromVisibWave heightAir tempDewpointWater temp
2018-Feb-23 08:34N 38°51' E 121°51'110.8
2018-Feb-23 08:28N 38°51' E 121°52'  
2018-Feb-14 16:26N 34°02' E 130°07'3 6.9
2018-Feb-14 16:00N 34°02' E 130°10'3 6.8
2018-Feb-14 15:31N 34°02' E 130°14'3 6.8
2018-Feb-14 15:01N 34°02' E 130°18'3 6.7
2018-Feb-14 14:30N 34°02' E 130°23'3 6.6
2018-Feb-14 14:01N 34°02' E 130°27'3 6.7
2018-Feb-14 13:31N 34°02' E 130°31'3 6.6
2018-Feb-14 13:01N 34°03' E 130°34'3 6.7
2018-Feb-14 12:31N 34°03' E 130°39'4 7.3
2018-Feb-14 12:01N 34°03' E 130°43'4 7.7
2018-Feb-14 11:30N 34°02' E 130°48'4 8.1
2018-Feb-14 11:00N 34°01' E 130°52'4 7.8
2018-Feb-14 10:30N 33°57' E 130°52'3 6.8
2018-Feb-14 10:01N 33°56' E 130°56'4 8.5
2018-Feb-14 09:30N 33°59' E 130°59'4 8.0
2018-Feb-14 09:00N 33°57' E 131°03'5 9.1
2018-Feb-14 08:30N 33°52' E 131°04'4 7.7
2018-Feb-14 08:00N 33°49' E 131°03'2 4.6
2018-Feb-14 07:31N 33°48' E 130°60'0 0.0
2018-Feb-14 07:01N 33°48' E 130°60'0 0.0
2018-Feb-14 06:25N 33°48' E 130°60'0 0.0
2018-Feb-14 06:01N 33°48' E 130°60'0 0.0
2018-Feb-14 05:31N 33°48' E 130°60'0 0.0
2018-Feb-14 05:01N 33°48' E 130°60'0 0.0
2018-Feb-14 04:31N 33°48' E 130°60'0 0.0
2018-Feb-14 03:57N 33°48' E 130°60'0 0.0
2018-Feb-14 03:30N 33°48' E 130°60'0 0.0
2018-Feb-14 03:01N 33°48' E 130°60'0 0.0
2018-Feb-14 02:31N 33°48' E 130°60'0 0.0
2018-Feb-14 02:01N 33°48' E 130°60'0 0.0
2018-Feb-14 01:30N 33°48' E 130°60'0 0.0
2018-Feb-14 01:01N 33°48' E 130°60'0 0.0
2018-Feb-14 00:31N 33°48' E 130°60'0 0.0
2018-Feb-14 00:00N 33°48' E 130°60'0 0.0
2018-Feb-13 23:30N 33°48' E 130°60'0 0.0
2018-Feb-13 22:57N 33°48' E 130°60'0 0.0
2018-Feb-13 22:30N 33°48' E 130°60'0 0.0
2018-Feb-13 21:58N 33°48' E 130°60'0 0.0
2018-Feb-13 21:31N 33°48' E 130°60'0 0.0
2018-Feb-13 21:01N 33°48' E 130°60'0 0.0
2018-Feb-13 20:30N 33°48' E 130°60'0 0.0
2018-Feb-13 20:00N 33°48' E 130°60'0 0.0
2018-Feb-13 19:31N 33°48' E 130°60'0 0.0
2018-Feb-13 18:57N 33°48' E 130°60'0 0.0
2018-Feb-13 18:30N 33°48' E 130°60'0 0.0
2018-Feb-13 18:01N 33°48' E 130°60'0 0.0
2018-Feb-13 17:31N 33°48' E 130°60'0 0.0
2018-Feb-13 17:00N 33°48' E 130°60'0 0.0
2018-Feb-13 16:30N 33°48' E 130°60'0 0.0
2018-Feb-13 16:00N 33°48' E 130°60'0 0.0
2018-Feb-13 15:30N 33°48' E 130°60'0 0.0
2018-Feb-13 15:00N 33°48' E 130°60'0 0.0
2018-Feb-13 14:30N 33°48' E 130°60'0 0.0
2018-Feb-13 14:00N 33°48' E 130°60'0 0.0
2018-Feb-13 13:27N 33°48' E 130°60'0 0.0
2018-Feb-13 13:00N 33°48' E 130°60'0 0.0
2018-Feb-13 12:27N 33°48' E 130°60'0 0.0
2018-Feb-13 12:00N 33°48' E 130°60'0 0.0
2018-Feb-13 11:30N 33°48' E 130°60'0 0.0
2018-Feb-13 10:57N 33°48' E 130°60'0 0.0
2018-Feb-13 10:27N 33°48' E 130°60'0 0.0
2018-Feb-13 10:00N 33°48' E 130°60'0 0.0
2018-Feb-13 09:30N 33°48' E 130°60'0 0.0
2018-Feb-13 09:00N 33°48' E 130°60'  
Track history (hours):
 
Tides and Currents Weather Stations Pressure Air Temp Water Temp Dewpoint Dewpoint Depression Visibility Wind Speed Wind Dir Waves Ship Positions

Pu Dun

Last reported at 2018-Feb-23 08:34 UTC. Time now 2018-Feb-23 16:24 UTC.
Position N 38°51' E 121°51'.

Length 75 m; draft 5.3 m.

Type: Cargo ship. MMSI: 312615000.

Date/timePositionNaut miles runAvg speedWind from/ knotsBaromVisibWave heightAir tempDewpointWater temp
2018-Feb-23 08:34N 38°51' E 121°51'110.8
2018-Feb-23 08:28N 38°51' E 121°52'  
2018-Feb-14 16:26N 34°02' E 130°07'3 6.9
2018-Feb-14 16:00N 34°02' E 130°10'3 6.8
2018-Feb-14 15:31N 34°02' E 130°14'3 6.8
2018-Feb-14 15:01N 34°02' E 130°18'3 6.7
2018-Feb-14 14:30N 34°02' E 130°23'3 6.6
2018-Feb-14 14:01N 34°02' E 130°27'3 6.7
2018-Feb-14 13:31N 34°02' E 130°31'3 6.6
2018-Feb-14 13:01N 34°03' E 130°34'3 6.7
2018-Feb-14 12:31N 34°03' E 130°39'4 7.3
2018-Feb-14 12:01N 34°03' E 130°43'4 7.7
2018-Feb-14 11:30N 34°02' E 130°48'4 8.1
2018-Feb-14 11:00N 34°01' E 130°52'4 7.8
2018-Feb-14 10:30N 33°57' E 130°52'3 6.8
2018-Feb-14 10:01N 33°56' E 130°56'4 8.5
2018-Feb-14 09:30N 33°59' E 130°59'4 8.0
2018-Feb-14 09:00N 33°57' E 131°03'5 9.1
2018-Feb-14 08:30N 33°52' E 131°04'4 7.7
2018-Feb-14 08:00N 33°49' E 131°03'2 4.6
2018-Feb-14 07:31N 33°48' E 130°60'0 0.0
2018-Feb-14 07:01N 33°48' E 130°60'0 0.0
2018-Feb-14 06:25N 33°48' E 130°60'0 0.0
2018-Feb-14 06:01N 33°48' E 130°60'0 0.0
2018-Feb-14 05:31N 33°48' E 130°60'0 0.0
2018-Feb-14 05:01N 33°48' E 130°60'0 0.0
2018-Feb-14 04:31N 33°48' E 130°60'0 0.0
2018-Feb-14 03:57N 33°48' E 130°60'0 0.0
2018-Feb-14 03:30N 33°48' E 130°60'0 0.0
2018-Feb-14 03:01N 33°48' E 130°60'0 0.0
2018-Feb-14 02:31N 33°48' E 130°60'0 0.0
2018-Feb-14 02:01N 33°48' E 130°60'0 0.0
2018-Feb-14 01:30N 33°48' E 130°60'0 0.0
2018-Feb-14 01:01N 33°48' E 130°60'0 0.0
2018-Feb-14 00:31N 33°48' E 130°60'0 0.0
2018-Feb-14 00:00N 33°48' E 130°60'0 0.0
2018-Feb-13 23:30N 33°48' E 130°60'0 0.0
2018-Feb-13 22:57N 33°48' E 130°60'0 0.0
2018-Feb-13 22:30N 33°48' E 130°60'0 0.0
2018-Feb-13 21:58N 33°48' E 130°60'0 0.0
2018-Feb-13 21:31N 33°48' E 130°60'0 0.0
2018-Feb-13 21:01N 33°48' E 130°60'0 0.0
2018-Feb-13 20:30N 33°48' E 130°60'0 0.0
2018-Feb-13 20:00N 33°48' E 130°60'0 0.0
2018-Feb-13 19:31N 33°48' E 130°60'0 0.0
2018-Feb-13 18:57N 33°48' E 130°60'0 0.0
2018-Feb-13 18:30N 33°48' E 130°60'0 0.0
2018-Feb-13 18:01N 33°48' E 130°60'0 0.0
2018-Feb-13 17:31N 33°48' E 130°60'0 0.0
2018-Feb-13 17:00N 33°48' E 130°60'0 0.0
2018-Feb-13 16:30N 33°48' E 130°60'0 0.0
2018-Feb-13 16:00N 33°48' E 130°60'0 0.0
2018-Feb-13 15:30N 33°48' E 130°60'0 0.0
2018-Feb-13 15:00N 33°48' E 130°60'0 0.0
2018-Feb-13 14:30N 33°48' E 130°60'0 0.0
2018-Feb-13 14:00N 33°48' E 130°60'0 0.0
2018-Feb-13 13:27N 33°48' E 130°60'0 0.0
2018-Feb-13 13:00N 33°48' E 130°60'0 0.0
2018-Feb-13 12:27N 33°48' E 130°60'0 0.0
2018-Feb-13 12:00N 33°48' E 130°60'0 0.0
2018-Feb-13 11:30N 33°48' E 130°60'0 0.0
2018-Feb-13 10:57N 33°48' E 130°60'0 0.0
2018-Feb-13 10:27N 33°48' E 130°60'0 0.0
2018-Feb-13 10:00N 33°48' E 130°60'0 0.0
2018-Feb-13 09:30N 33°48' E 130°60'0 0.0
2018-Feb-13 09:00N 33°48' E 130°60'  

Dump ship's entire track history